sensor_id;sensor_type;location;lat;lon;timestamp;P1;durP1;ratioP1;P2;durP2;ratioP2
69738;SDS011;66905;51.012;4.724;2023-02-11T00:00:17;18.13;;;9.00;;
69738;SDS011;66905;51.012;4.724;2023-02-11T00:02:43;15.10;;;7.72;;
69738;SDS011;66905;51.012;4.724;2023-02-11T00:05:09;18.70;;;7.60;;
69738;SDS011;66905;51.012;4.724;2023-02-11T00:07:35;19.27;;;7.30;;
69738;SDS011;66905;51.012;4.724;2023-02-11T00:10:01;17.85;;;8.45;;
69738;SDS011;66905;51.012;4.724;2023-02-11T00:12:28;15.73;;;8.20;;
69738;SDS011;66905;51.012;4.724;2023-02-11T00:14:57;18.15;;;8.07;;
69738;SDS011;66905;51.012;4.724;2023-02-11T00:17:22;19.17;;;8.23;;
69738;SDS011;66905;51.012;4.724;2023-02-11T00:19:48;14.90;;;8.68;;
69738;SDS011;66905;51.012;4.724;2023-02-11T00:22:17;14.88;;;7.75;;
69738;SDS011;66905;51.012;4.724;2023-02-11T00:24:43;19.98;;;7.90;;
69738;SDS011;66905;51.012;4.724;2023-02-11T00:27:11;17.20;;;8.07;;
69738;SDS011;66905;51.012;4.724;2023-02-11T00:29:37;16.27;;;8.13;;
69738;SDS011;66905;51.012;4.724;2023-02-11T00:32:03;16.00;;;7.57;;
69738;SDS011;66905;51.012;4.724;2023-02-11T00:34:32;17.25;;;9.18;;
69738;SDS011;66905;51.012;4.724;2023-02-11T00:37:01;20.75;;;7.28;;
69738;SDS011;66905;51.012;4.724;2023-02-11T00:39:28;15.30;;;8.00;;
69738;SDS011;66905;51.012;4.724;2023-02-11T00:41:54;16.17;;;7.43;;
69738;SDS011;66905;51.012;4.724;2023-02-11T00:44:22;17.17;;;6.72;;
69738;SDS011;66905;51.012;4.724;2023-02-11T00:46:49;18.00;;;6.53;;
69738;SDS011;66905;51.012;4.724;2023-02-11T00:49:16;15.70;;;6.80;;
69738;SDS011;66905;51.012;4.724;2023-02-11T00:51:42;16.67;;;7.85;;
69738;SDS011;66905;51.012;4.724;2023-02-11T00:54:08;16.98;;;7.20;;
69738;SDS011;66905;51.012;4.724;2023-02-11T00:56:36;14.15;;;6.15;;
69738;SDS011;66905;51.012;4.724;2023-02-11T00:59:01;12.95;;;6.75;;
69738;SDS011;66905;51.012;4.724;2023-02-11T01:01:27;13.57;;;6.63;;
69738;SDS011;66905;51.012;4.724;2023-02-11T01:03:56;17.00;;;7.10;;
69738;SDS011;66905;51.012;4.724;2023-02-11T01:06:22;11.63;;;5.35;;
69738;SDS011;66905;51.012;4.724;2023-02-11T01:08:47;15.70;;;5.82;;
69738;SDS011;66905;51.012;4.724;2023-02-11T01:11:17;13.68;;;6.90;;
69738;SDS011;66905;51.012;4.724;2023-02-11T01:13:45;12.38;;;6.45;;
69738;SDS011;66905;51.012;4.724;2023-02-11T01:16:11;10.68;;;6.05;;
69738;SDS011;66905;51.012;4.724;2023-02-11T01:18:38;13.13;;;6.43;;
69738;SDS011;66905;51.012;4.724;2023-02-11T01:21:04;13.05;;;6.03;;
69738;SDS011;66905;51.012;4.724;2023-02-11T01:23:30;15.30;;;7.85;;
69738;SDS011;66905;51.012;4.724;2023-02-11T01:25:57;16.40;;;7.53;;
69738;SDS011;66905;51.012;4.724;2023-02-11T01:28:24;16.15;;;7.15;;
69738;SDS011;66905;51.012;4.724;2023-02-11T01:30:51;11.00;;;6.00;;
69738;SDS011;66905;51.012;4.724;2023-02-11T01:33:17;15.32;;;6.90;;
69738;SDS011;66905;51.012;4.724;2023-02-11T01:35:44;15.90;;;6.57;;
69738;SDS011;66905;51.012;4.724;2023-02-11T01:38:13;13.63;;;7.00;;
69738;SDS011;66905;51.012;4.724;2023-02-11T01:40:47;21.33;;;6.68;;
69738;SDS011;66905;51.012;4.724;2023-02-11T01:43:23;19.23;;;7.50;;
69738;SDS011;66905;51.012;4.724;2023-02-11T01:45:58;22.05;;;7.88;;
69738;SDS011;66905;51.012;4.724;2023-02-11T01:48:33;11.73;;;6.65;;
69738;SDS011;66905;51.012;4.724;2023-02-11T01:51:21;15.40;;;7.93;;
69738;SDS011;66905;51.012;4.724;2023-02-11T01:53:51;13.48;;;6.28;;
69738;SDS011;66905;51.012;4.724;2023-02-11T01:56:37;16.73;;;7.07;;
69738;SDS011;66905;51.012;4.724;2023-02-11T01:59:28;11.20;;;5.78;;
69738;SDS011;66905;51.012;4.724;2023-02-11T02:01:57;16.33;;;6.28;;
69738;SDS011;66905;51.012;4.724;2023-02-11T02:07:02;14.43;;;5.32;;
69738;SDS011;66905;51.012;4.724;2023-02-11T02:09:39;12.55;;;6.57;;
69738;SDS011;66905;51.012;4.724;2023-02-11T02:12:10;10.38;;;5.75;;
69738;SDS011;66905;51.012;4.724;2023-02-11T02:14:39;13.90;;;6.35;;
69738;SDS011;66905;51.012;4.724;2023-02-11T02:17:07;14.93;;;5.88;;
69738;SDS011;66905;51.012;4.724;2023-02-11T02:19:58;14.35;;;7.00;;
69738;SDS011;66905;51.012;4.724;2023-02-11T02:23:09;15.00;;;7.32;;
69738;SDS011;66905;51.012;4.724;2023-02-11T02:38:38;14.52;;;5.95;;
69738;SDS011;66905;51.012;4.724;2023-02-11T02:41:18;14.13;;;6.85;;
69738;SDS011;66905;51.012;4.724;2023-02-11T02:43:47;15.63;;;7.07;;
69738;SDS011;66905;51.012;4.724;2023-02-11T02:46:24;14.02;;;5.88;;
69738;SDS011;66905;51.012;4.724;2023-02-11T02:48:55;15.45;;;6.30;;
69738;SDS011;66905;51.012;4.724;2023-02-11T03:04:25;14.88;;;5.43;;
69738;SDS011;66905;51.012;4.724;2023-02-11T03:09:45;14.15;;;5.93;;
69738;SDS011;66905;51.012;4.724;2023-02-11T03:12:11;18.85;;;6.78;;
69738;SDS011;66905;51.012;4.724;2023-02-11T03:14:39;12.57;;;6.55;;
69738;SDS011;66905;51.012;4.724;2023-02-11T03:17:06;14.68;;;5.78;;
69738;SDS011;66905;51.012;4.724;2023-02-11T03:19:39;16.55;;;7.43;;
69738;SDS011;66905;51.012;4.724;2023-02-11T03:22:31;17.15;;;7.10;;
69738;SDS011;66905;51.012;4.724;2023-02-11T03:25:01;14.35;;;7.22;;
69738;SDS011;66905;51.012;4.724;2023-02-11T03:27:44;15.20;;;6.55;;
69738;SDS011;66905;51.012;4.724;2023-02-11T03:31:01;11.02;;;6.03;;
69738;SDS011;66905;51.012;4.724;2023-02-11T03:33:21;18.73;;;6.60;;
69738;SDS011;66905;51.012;4.724;2023-02-11T03:35:54;20.08;;;6.90;;
69738;SDS011;66905;51.012;4.724;2023-02-11T03:38:25;18.08;;;6.05;;
69738;SDS011;66905;51.012;4.724;2023-02-11T03:40:55;18.30;;;6.57;;
69738;SDS011;66905;51.012;4.724;2023-02-11T03:43:43;15.48;;;6.57;;
69738;SDS011;66905;51.012;4.724;2023-02-11T03:46:15;15.00;;;7.00;;
69738;SDS011;66905;51.012;4.724;2023-02-11T03:48:48;11.23;;;6.25;;
69738;SDS011;66905;51.012;4.724;2023-02-11T03:51:22;8.90;;;5.68;;
69738;SDS011;66905;51.012;4.724;2023-02-11T03:53:52;12.57;;;6.10;;
69738;SDS011;66905;51.012;4.724;2023-02-11T03:56:22;19.92;;;7.50;;
69738;SDS011;66905;51.012;4.724;2023-02-11T03:58:51;14.00;;;6.05;;
69738;SDS011;66905;51.012;4.724;2023-02-11T04:01:17;11.20;;;6.13;;
69738;SDS011;66905;51.012;4.724;2023-02-11T04:03:42;19.98;;;8.93;;
69738;SDS011;66905;51.012;4.724;2023-02-11T04:06:08;15.27;;;6.22;;
69738;SDS011;66905;51.012;4.724;2023-02-11T04:08:34;13.43;;;6.50;;
69738;SDS011;66905;51.012;4.724;2023-02-11T04:11:00;15.82;;;6.60;;
69738;SDS011;66905;51.012;4.724;2023-02-11T04:13:25;15.63;;;7.15;;
69738;SDS011;66905;51.012;4.724;2023-02-11T04:15:51;21.05;;;6.85;;
69738;SDS011;66905;51.012;4.724;2023-02-11T04:18:17;16.00;;;6.82;;
69738;SDS011;66905;51.012;4.724;2023-02-11T04:20:42;13.65;;;6.53;;
69738;SDS011;66905;51.012;4.724;2023-02-11T04:23:08;14.95;;;6.88;;
69738;SDS011;66905;51.012;4.724;2023-02-11T04:25:36;16.75;;;7.60;;
69738;SDS011;66905;51.012;4.724;2023-02-11T04:28:02;16.92;;;7.00;;
69738;SDS011;66905;51.012;4.724;2023-02-11T04:30:28;15.88;;;6.97;;
69738;SDS011;66905;51.012;4.724;2023-02-11T04:32:53;15.02;;;7.88;;
69738;SDS011;66905;51.012;4.724;2023-02-11T04:35:19;15.63;;;8.07;;
69738;SDS011;66905;51.012;4.724;2023-02-11T04:37:45;16.92;;;7.05;;
69738;SDS011;66905;51.012;4.724;2023-02-11T04:40:11;17.38;;;7.90;;
69738;SDS011;66905;51.012;4.724;2023-02-11T04:42:37;17.45;;;6.88;;
69738;SDS011;66905;51.012;4.724;2023-02-11T04:45:03;15.35;;;7.18;;
69738;SDS011;66905;51.012;4.724;2023-02-11T04:47:29;19.70;;;8.82;;
69738;SDS011;66905;51.012;4.724;2023-02-11T04:49:54;12.68;;;7.60;;
69738;SDS011;66905;51.012;4.724;2023-02-11T04:52:22;16.90;;;7.88;;
69738;SDS011;66905;51.012;4.724;2023-02-11T04:54:48;12.10;;;7.40;;
69738;SDS011;66905;51.012;4.724;2023-02-11T04:57:13;19.50;;;8.20;;
69738;SDS011;66905;51.012;4.724;2023-02-11T04:59:41;18.50;;;9.07;;
69738;SDS011;66905;51.012;4.724;2023-02-11T05:02:07;16.83;;;7.50;;
69738;SDS011;66905;51.012;4.724;2023-02-11T05:04:33;17.00;;;8.02;;
69738;SDS011;66905;51.012;4.724;2023-02-11T05:07:01;20.17;;;9.32;;
69738;SDS011;66905;51.012;4.724;2023-02-11T05:09:27;24.20;;;9.52;;
69738;SDS011;66905;51.012;4.724;2023-02-11T05:11:53;19.88;;;9.40;;
69738;SDS011;66905;51.012;4.724;2023-02-11T05:14:20;17.40;;;9.15;;
69738;SDS011;66905;51.012;4.724;2023-02-11T05:16:46;19.27;;;10.40;;
69738;SDS011;66905;51.012;4.724;2023-02-11T05:19:12;20.00;;;10.02;;
69738;SDS011;66905;51.012;4.724;2023-02-11T05:21:37;19.35;;;10.15;;
69738;SDS011;66905;51.012;4.724;2023-02-11T05:24:03;25.77;;;9.65;;
69738;SDS011;66905;51.012;4.724;2023-02-11T05:26:32;18.20;;;10.93;;
69738;SDS011;66905;51.012;4.724;2023-02-11T05:28:57;30.38;;;11.93;;
69738;SDS011;66905;51.012;4.724;2023-02-11T05:31:23;28.38;;;9.95;;
69738;SDS011;66905;51.012;4.724;2023-02-11T05:33:49;19.25;;;9.43;;
69738;SDS011;66905;51.012;4.724;2023-02-11T05:36:14;22.05;;;9.60;;
69738;SDS011;66905;51.012;4.724;2023-02-11T05:38:41;20.50;;;10.32;;
69738;SDS011;66905;51.012;4.724;2023-02-11T05:41:07;20.13;;;10.27;;
69738;SDS011;66905;51.012;4.724;2023-02-11T05:43:33;21.95;;;11.10;;
69738;SDS011;66905;51.012;4.724;2023-02-11T05:46:00;15.88;;;8.50;;
69738;SDS011;66905;51.012;4.724;2023-02-11T05:48:27;26.25;;;9.63;;
69738;SDS011;66905;51.012;4.724;2023-02-11T05:50:53;31.48;;;11.68;;
69738;SDS011;66905;51.012;4.724;2023-02-11T05:53:19;20.42;;;9.77;;
69738;SDS011;66905;51.012;4.724;2023-02-11T05:55:44;18.70;;;10.43;;
69738;SDS011;66905;51.012;4.724;2023-02-11T05:58:10;20.70;;;10.35;;
69738;SDS011;66905;51.012;4.724;2023-02-11T06:00:36;20.85;;;11.65;;
69738;SDS011;66905;51.012;4.724;2023-02-11T06:03:04;21.65;;;10.73;;
69738;SDS011;66905;51.012;4.724;2023-02-11T06:05:30;24.23;;;11.82;;
69738;SDS011;66905;51.012;4.724;2023-02-11T06:07:56;22.88;;;10.35;;
69738;SDS011;66905;51.012;4.724;2023-02-11T06:10:22;24.92;;;11.80;;
69738;SDS011;66905;51.012;4.724;2023-02-11T06:12:47;26.55;;;12.15;;
69738;SDS011;66905;51.012;4.724;2023-02-11T06:15:13;26.63;;;11.52;;
69738;SDS011;66905;51.012;4.724;2023-02-11T06:17:39;30.30;;;12.70;;
69738;SDS011;66905;51.012;4.724;2023-02-11T06:20:05;20.45;;;10.98;;
69738;SDS011;66905;51.012;4.724;2023-02-11T06:22:34;25.35;;;11.43;;
69738;SDS011;66905;51.012;4.724;2023-02-11T06:25:00;27.30;;;12.15;;
69738;SDS011;66905;51.012;4.724;2023-02-11T06:27:26;25.42;;;11.90;;
69738;SDS011;66905;51.012;4.724;2023-02-11T06:29:52;25.30;;;11.63;;
69738;SDS011;66905;51.012;4.724;2023-02-11T06:32:17;27.95;;;12.95;;
69738;SDS011;66905;51.012;4.724;2023-02-11T06:34:46;28.15;;;13.52;;
69738;SDS011;66905;51.012;4.724;2023-02-11T06:37:11;27.38;;;10.70;;
69738;SDS011;66905;51.012;4.724;2023-02-11T06:39:37;25.23;;;12.38;;
69738;SDS011;66905;51.012;4.724;2023-02-11T06:42:05;22.95;;;12.82;;
69738;SDS011;66905;51.012;4.724;2023-02-11T06:44:31;23.60;;;12.75;;
69738;SDS011;66905;51.012;4.724;2023-02-11T06:46:58;34.63;;;13.40;;
69738;SDS011;66905;51.012;4.724;2023-02-11T06:49:24;28.00;;;13.30;;
69738;SDS011;66905;51.012;4.724;2023-02-11T06:51:50;31.17;;;13.85;;
69738;SDS011;66905;51.012;4.724;2023-02-11T06:54:18;26.25;;;12.73;;
69738;SDS011;66905;51.012;4.724;2023-02-11T06:56:46;32.75;;;12.05;;
69738;SDS011;66905;51.012;4.724;2023-02-11T06:59:13;31.25;;;15.27;;
69738;SDS011;66905;51.012;4.724;2023-02-11T07:01:40;33.50;;;15.50;;
69738;SDS011;66905;51.012;4.724;2023-02-11T07:04:06;32.65;;;14.07;;
69738;SDS011;66905;51.012;4.724;2023-02-11T07:06:32;26.08;;;14.07;;
69738;SDS011;66905;51.012;4.724;2023-02-11T07:09:00;26.52;;;13.20;;
69738;SDS011;66905;51.012;4.724;2023-02-11T07:11:27;28.67;;;14.25;;
69738;SDS011;66905;51.012;4.724;2023-02-11T07:13:55;35.78;;;15.18;;
69738;SDS011;66905;51.012;4.724;2023-02-11T07:16:25;30.33;;;14.55;;
69738;SDS011;66905;51.012;4.724;2023-02-11T07:18:51;28.50;;;13.75;;
69738;SDS011;66905;51.012;4.724;2023-02-11T07:21:18;25.42;;;14.25;;
69738;SDS011;66905;51.012;4.724;2023-02-11T07:23:49;31.65;;;13.82;;
69738;SDS011;66905;51.012;4.724;2023-02-11T07:26:18;23.70;;;11.48;;
69738;SDS011;66905;51.012;4.724;2023-02-11T07:28:49;29.23;;;15.40;;
69738;SDS011;66905;51.012;4.724;2023-02-11T07:31:23;41.45;;;16.52;;
69738;SDS011;66905;51.012;4.724;2023-02-11T07:33:51;26.80;;;13.60;;
69738;SDS011;66905;51.012;4.724;2023-02-11T07:36:18;27.52;;;13.48;;
69738;SDS011;66905;51.012;4.724;2023-02-11T07:38:44;29.63;;;14.75;;
69738;SDS011;66905;51.012;4.724;2023-02-11T07:41:11;24.45;;;13.52;;
69738;SDS011;66905;51.012;4.724;2023-02-11T07:43:41;33.05;;;16.63;;
69738;SDS011;66905;51.012;4.724;2023-02-11T07:46:12;32.83;;;16.25;;
69738;SDS011;66905;51.012;4.724;2023-02-11T07:48:41;26.83;;;14.90;;
69738;SDS011;66905;51.012;4.724;2023-02-11T07:51:11;30.77;;;14.98;;
69738;SDS011;66905;51.012;4.724;2023-02-11T07:53:50;33.55;;;16.88;;
69738;SDS011;66905;51.012;4.724;2023-02-11T07:56:17;35.20;;;16.65;;
69738;SDS011;66905;51.012;4.724;2023-02-11T07:58:46;34.88;;;15.55;;
69738;SDS011;66905;51.012;4.724;2023-02-11T08:01:13;33.60;;;16.48;;
69738;SDS011;66905;51.012;4.724;2023-02-11T08:03:43;30.10;;;15.15;;
69738;SDS011;66905;51.012;4.724;2023-02-11T08:06:10;34.72;;;15.77;;
69738;SDS011;66905;51.012;4.724;2023-02-11T08:08:38;29.27;;;15.23;;
69738;SDS011;66905;51.012;4.724;2023-02-11T08:11:05;31.75;;;16.52;;
69738;SDS011;66905;51.012;4.724;2023-02-11T08:13:32;30.40;;;15.80;;
69738;SDS011;66905;51.012;4.724;2023-02-11T08:16:01;31.88;;;17.30;;
69738;SDS011;66905;51.012;4.724;2023-02-11T08:18:27;35.35;;;16.92;;
69738;SDS011;66905;51.012;4.724;2023-02-11T08:20:53;30.10;;;14.98;;
69738;SDS011;66905;51.012;4.724;2023-02-11T08:23:19;35.15;;;16.75;;
69738;SDS011;66905;51.012;4.724;2023-02-11T08:25:44;32.92;;;16.70;;
69738;SDS011;66905;51.012;4.724;2023-02-11T08:28:10;28.85;;;15.48;;
69738;SDS011;66905;51.012;4.724;2023-02-11T08:30:38;37.22;;;15.13;;
69738;SDS011;66905;51.012;4.724;2023-02-11T08:33:04;34.15;;;16.98;;
69738;SDS011;66905;51.012;4.724;2023-02-11T08:35:29;39.13;;;17.52;;
69738;SDS011;66905;51.012;4.724;2023-02-11T08:37:55;40.30;;;17.50;;
69738;SDS011;66905;51.012;4.724;2023-02-11T08:40:21;34.47;;;15.32;;
69738;SDS011;66905;51.012;4.724;2023-02-11T08:42:46;40.10;;;17.20;;
69738;SDS011;66905;51.012;4.724;2023-02-11T08:45:12;37.72;;;18.13;;
69738;SDS011;66905;51.012;4.724;2023-02-11T08:47:40;40.90;;;18.05;;
69738;SDS011;66905;51.012;4.724;2023-02-11T08:50:05;41.53;;;16.55;;
69738;SDS011;66905;51.012;4.724;2023-02-11T08:52:31;36.45;;;17.00;;
69738;SDS011;66905;51.012;4.724;2023-02-11T08:54:59;40.05;;;18.10;;
69738;SDS011;66905;51.012;4.724;2023-02-11T08:57:25;32.83;;;17.10;;
69738;SDS011;66905;51.012;4.724;2023-02-11T08:59:50;42.90;;;18.98;;
69738;SDS011;66905;51.012;4.724;2023-02-11T09:02:16;40.53;;;18.55;;
69738;SDS011;66905;51.012;4.724;2023-02-11T09:04:42;39.92;;;19.30;;
69738;SDS011;66905;51.012;4.724;2023-02-11T09:07:07;38.78;;;18.92;;
69738;SDS011;66905;51.012;4.724;2023-02-11T09:09:36;46.92;;;20.90;;
69738;SDS011;66905;51.012;4.724;2023-02-11T09:12:02;38.17;;;19.60;;
69738;SDS011;66905;51.012;4.724;2023-02-11T09:14:31;46.90;;;19.55;;
69738;SDS011;66905;51.012;4.724;2023-02-11T09:16:59;41.83;;;20.77;;
69738;SDS011;66905;51.012;4.724;2023-02-11T09:19:24;45.53;;;21.05;;
69738;SDS011;66905;51.012;4.724;2023-02-11T09:21:50;41.05;;;18.92;;
69738;SDS011;66905;51.012;4.724;2023-02-11T09:24:16;45.50;;;18.58;;
69738;SDS011;66905;51.012;4.724;2023-02-11T09:26:44;45.30;;;22.00;;
69738;SDS011;66905;51.012;4.724;2023-02-11T09:29:10;43.70;;;18.38;;
69738;SDS011;66905;51.012;4.724;2023-02-11T09:31:35;42.63;;;19.15;;
69738;SDS011;66905;51.012;4.724;2023-02-11T09:34:02;36.83;;;17.60;;
69738;SDS011;66905;51.012;4.724;2023-02-11T09:36:34;50.97;;;23.38;;
69738;SDS011;66905;51.012;4.724;2023-02-11T09:41:42;54.03;;;20.88;;
69738;SDS011;66905;51.012;4.724;2023-02-11T09:44:30;49.65;;;23.08;;
69738;SDS011;66905;51.012;4.724;2023-02-11T09:49:59;52.40;;;21.88;;
69738;SDS011;66905;51.012;4.724;2023-02-11T09:55:34;51.28;;;23.55;;
69738;SDS011;66905;51.012;4.724;2023-02-11T09:58:13;53.47;;;22.17;;
69738;SDS011;66905;51.012;4.724;2023-02-11T10:00:47;40.50;;;20.55;;
69738;SDS011;66905;51.012;4.724;2023-02-11T10:17:06;41.60;;;20.65;;
69738;SDS011;66905;51.012;4.724;2023-02-11T10:22:59;45.05;;;24.50;;
69738;SDS011;66905;51.012;4.724;2023-02-11T10:25:41;45.15;;;22.98;;
69738;SDS011;66905;51.012;4.724;2023-02-11T10:28:17;47.42;;;20.08;;
69738;SDS011;66905;51.012;4.724;2023-02-11T10:35:50;49.78;;;21.35;;
69738;SDS011;66905;51.012;4.724;2023-02-11T10:38:16;63.50;;;24.90;;
69738;SDS011;66905;51.012;4.724;2023-02-11T10:40:42;56.00;;;25.30;;
69738;SDS011;66905;51.012;4.724;2023-02-11T10:43:12;50.47;;;23.83;;
69738;SDS011;66905;51.012;4.724;2023-02-11T10:45:45;53.00;;;24.92;;
69738;SDS011;66905;51.012;4.724;2023-02-11T10:53:45;55.55;;;24.38;;
69738;SDS011;66905;51.012;4.724;2023-02-11T10:56:20;55.50;;;24.70;;
69738;SDS011;66905;51.012;4.724;2023-02-11T10:58:55;52.92;;;25.17;;
69738;SDS011;66905;51.012;4.724;2023-02-11T11:04:02;52.60;;;23.48;;
69738;SDS011;66905;51.012;4.724;2023-02-11T11:06:31;52.58;;;25.20;;
69738;SDS011;66905;51.012;4.724;2023-02-11T11:08:58;65.63;;;26.95;;
69738;SDS011;66905;51.012;4.724;2023-02-11T11:11:25;57.42;;;26.25;;
69738;SDS011;66905;51.012;4.724;2023-02-11T11:16:24;57.95;;;28.35;;
69738;SDS011;66905;51.012;4.724;2023-02-11T11:19:07;62.78;;;27.08;;
69738;SDS011;66905;51.012;4.724;2023-02-11T11:27:16;56.35;;;23.92;;
69738;SDS011;66905;51.012;4.724;2023-02-11T11:29:44;51.45;;;25.70;;
69738;SDS011;66905;51.012;4.724;2023-02-11T11:34:47;60.72;;;28.13;;
69738;SDS011;66905;51.012;4.724;2023-02-11T11:37:19;59.80;;;26.73;;
69738;SDS011;66905;51.012;4.724;2023-02-11T11:39:54;63.90;;;25.95;;
69738;SDS011;66905;51.012;4.724;2023-02-11T11:55:55;45.20;;;21.80;;
69738;SDS011;66905;51.012;4.724;2023-02-11T11:58:33;46.83;;;23.02;;
69738;SDS011;66905;51.012;4.724;2023-02-11T12:11:57;52.70;;;22.80;;
69738;SDS011;66905;51.012;4.724;2023-02-11T12:19:57;46.20;;;21.80;;
69738;SDS011;66905;51.012;4.724;2023-02-11T12:33:14;51.78;;;22.33;;
69738;SDS011;66905;51.012;4.724;2023-02-11T12:36:01;48.67;;;24.92;;
69738;SDS011;66905;51.012;4.724;2023-02-11T12:55:41;51.00;;;24.20;;
69738;SDS011;66905;51.012;4.724;2023-02-11T12:58:11;49.50;;;23.85;;
69738;SDS011;66905;51.012;4.724;2023-02-11T13:00:51;52.45;;;25.35;;
69738;SDS011;66905;51.012;4.724;2023-02-11T13:03:29;49.45;;;22.90;;
69738;SDS011;66905;51.012;4.724;2023-02-11T13:06:06;43.28;;;22.75;;
69738;SDS011;66905;51.012;4.724;2023-02-11T13:08:39;47.17;;;23.15;;
69738;SDS011;66905;51.012;4.724;2023-02-11T13:11:14;48.58;;;24.85;;
69738;SDS011;66905;51.012;4.724;2023-02-11T13:16:22;53.05;;;25.27;;
69738;SDS011;66905;51.012;4.724;2023-02-11T13:27:28;48.78;;;24.63;;
69738;SDS011;66905;51.012;4.724;2023-02-11T13:30:30;50.28;;;22.45;;
69738;SDS011;66905;51.012;4.724;2023-02-11T13:37:57;49.63;;;24.33;;
69738;SDS011;66905;51.012;4.724;2023-02-11T13:40:27;52.53;;;24.35;;
69738;SDS011;66905;51.012;4.724;2023-02-11T13:42:58;53.40;;;24.80;;
69738;SDS011;66905;51.012;4.724;2023-02-11T13:45:42;50.45;;;24.35;;
69738;SDS011;66905;51.012;4.724;2023-02-11T13:48:14;56.58;;;26.10;;
69738;SDS011;66905;51.012;4.724;2023-02-11T13:50:48;55.67;;;25.00;;
69738;SDS011;66905;51.012;4.724;2023-02-11T13:53:56;47.15;;;21.98;;
69738;SDS011;66905;51.012;4.724;2023-02-11T13:56:29;45.47;;;22.98;;
69738;SDS011;66905;51.012;4.724;2023-02-11T13:58:58;50.72;;;24.17;;
69738;SDS011;66905;51.012;4.724;2023-02-11T14:04:20;54.25;;;24.45;;
69738;SDS011;66905;51.012;4.724;2023-02-11T14:07:31;56.10;;;25.30;;
69738;SDS011;66905;51.012;4.724;2023-02-11T14:13:55;51.17;;;22.98;;
69738;SDS011;66905;51.012;4.724;2023-02-11T14:16:17;51.92;;;26.35;;
69738;SDS011;66905;51.012;4.724;2023-02-11T14:23:42;53.55;;;26.27;;
69738;SDS011;66905;51.012;4.724;2023-02-11T14:31:48;62.63;;;28.55;;
69738;SDS011;66905;51.012;4.724;2023-02-11T14:37:02;55.80;;;25.73;;
69738;SDS011;66905;51.012;4.724;2023-02-11T14:42:19;50.70;;;24.27;;
69738;SDS011;66905;51.012;4.724;2023-02-11T14:44:51;55.95;;;28.20;;
69738;SDS011;66905;51.012;4.724;2023-02-11T14:47:27;56.75;;;27.48;;
69738;SDS011;66905;51.012;4.724;2023-02-11T14:50:05;54.38;;;24.67;;
69738;SDS011;66905;51.012;4.724;2023-02-11T14:52:38;51.88;;;25.98;;
69738;SDS011;66905;51.012;4.724;2023-02-11T14:55:13;54.85;;;26.90;;
69738;SDS011;66905;51.012;4.724;2023-02-11T14:58:12;50.58;;;23.85;;
69738;SDS011;66905;51.012;4.724;2023-02-11T15:08:44;56.30;;;27.52;;
69738;SDS011;66905;51.012;4.724;2023-02-11T15:11:14;51.63;;;25.38;;
69738;SDS011;66905;51.012;4.724;2023-02-11T15:13:42;61.72;;;27.05;;
69738;SDS011;66905;51.012;4.724;2023-02-11T15:16:18;59.83;;;27.30;;
69738;SDS011;66905;51.012;4.724;2023-02-11T15:18:48;53.28;;;26.30;;
69738;SDS011;66905;51.012;4.724;2023-02-11T15:21:23;53.65;;;28.13;;
69738;SDS011;66905;51.012;4.724;2023-02-11T15:24:33;53.67;;;26.45;;
69738;SDS011;66905;51.012;4.724;2023-02-11T15:29:42;58.33;;;27.02;;
69738;SDS011;66905;51.012;4.724;2023-02-11T15:32:20;63.45;;;29.10;;
69738;SDS011;66905;51.012;4.724;2023-02-11T15:34:49;57.05;;;27.75;;
69738;SDS011;66905;51.012;4.724;2023-02-11T15:37:20;48.85;;;23.98;;
69738;SDS011;66905;51.012;4.724;2023-02-11T15:39:49;49.40;;;27.40;;
69738;SDS011;66905;51.012;4.724;2023-02-11T15:42:25;52.20;;;27.58;;
69738;SDS011;66905;51.012;4.724;2023-02-11T15:47:47;53.63;;;27.80;;
69738;SDS011;66905;51.012;4.724;2023-02-11T15:50:22;57.15;;;28.20;;
69738;SDS011;66905;51.012;4.724;2023-02-11T15:52:49;49.28;;;27.63;;
69738;SDS011;66905;51.012;4.724;2023-02-11T15:55:18;62.33;;;29.95;;
69738;SDS011;66905;51.012;4.724;2023-02-11T15:57:46;55.72;;;28.42;;
69738;SDS011;66905;51.012;4.724;2023-02-11T16:00:20;55.30;;;27.00;;
69738;SDS011;66905;51.012;4.724;2023-02-11T16:02:50;62.35;;;32.30;;
69738;SDS011;66905;51.012;4.724;2023-02-11T16:05:23;65.65;;;31.92;;
69738;SDS011;66905;51.012;4.724;2023-02-11T16:08:21;60.72;;;29.58;;
69738;SDS011;66905;51.012;4.724;2023-02-11T16:10:54;56.47;;;28.75;;
69738;SDS011;66905;51.012;4.724;2023-02-11T16:13:22;56.35;;;28.10;;
69738;SDS011;66905;51.012;4.724;2023-02-11T16:15:50;53.70;;;27.80;;
69738;SDS011;66905;51.012;4.724;2023-02-11T16:18:42;62.17;;;29.35;;
69738;SDS011;66905;51.012;4.724;2023-02-11T16:21:13;55.95;;;30.20;;
69738;SDS011;66905;51.012;4.724;2023-02-11T16:23:41;54.90;;;28.85;;
69738;SDS011;66905;51.012;4.724;2023-02-11T16:26:26;54.58;;;28.40;;
69738;SDS011;66905;51.012;4.724;2023-02-11T16:31:39;58.08;;;30.25;;
69738;SDS011;66905;51.012;4.724;2023-02-11T16:34:10;54.72;;;29.02;;
69738;SDS011;66905;51.012;4.724;2023-02-11T16:36:47;63.15;;;29.55;;
69738;SDS011;66905;51.012;4.724;2023-02-11T16:39:13;63.72;;;30.58;;
69738;SDS011;66905;51.012;4.724;2023-02-11T16:41:41;56.88;;;29.02;;
69738;SDS011;66905;51.012;4.724;2023-02-11T16:44:07;64.85;;;30.80;;
69738;SDS011;66905;51.012;4.724;2023-02-11T16:46:37;60.25;;;31.02;;
69738;SDS011;66905;51.012;4.724;2023-02-11T16:49:10;59.92;;;31.55;;
69738;SDS011;66905;51.012;4.724;2023-02-11T16:51:39;66.03;;;31.95;;
69738;SDS011;66905;51.012;4.724;2023-02-11T16:54:06;65.47;;;33.25;;
69738;SDS011;66905;51.012;4.724;2023-02-11T16:56:35;58.20;;;31.35;;
69738;SDS011;66905;51.012;4.724;2023-02-11T16:59:01;59.38;;;30.88;;
69738;SDS011;66905;51.012;4.724;2023-02-11T17:01:26;59.97;;;30.05;;
69738;SDS011;66905;51.012;4.724;2023-02-11T17:03:52;53.85;;;28.90;;
69738;SDS011;66905;51.012;4.724;2023-02-11T17:06:18;60.33;;;31.50;;
69738;SDS011;66905;51.012;4.724;2023-02-11T17:08:44;58.60;;;30.45;;
69738;SDS011;66905;51.012;4.724;2023-02-11T17:11:10;60.83;;;32.17;;
69738;SDS011;66905;51.012;4.724;2023-02-11T17:13:40;64.88;;;33.03;;
69738;SDS011;66905;51.012;4.724;2023-02-11T17:16:14;65.05;;;32.95;;
69738;SDS011;66905;51.012;4.724;2023-02-11T17:18:45;66.60;;;32.33;;
69738;SDS011;66905;51.012;4.724;2023-02-11T17:21:11;61.35;;;31.80;;
69738;SDS011;66905;51.012;4.724;2023-02-11T17:23:37;59.33;;;32.45;;
69738;SDS011;66905;51.012;4.724;2023-02-11T17:26:06;60.38;;;31.50;;
69738;SDS011;66905;51.012;4.724;2023-02-11T17:28:34;57.08;;;31.23;;
69738;SDS011;66905;51.012;4.724;2023-02-11T17:31:00;60.78;;;30.83;;
69738;SDS011;66905;51.012;4.724;2023-02-11T17:33:30;55.05;;;28.98;;
69738;SDS011;66905;51.012;4.724;2023-02-11T17:35:55;63.75;;;32.67;;
69738;SDS011;66905;51.012;4.724;2023-02-11T17:38:24;55.17;;;30.85;;
69738;SDS011;66905;51.012;4.724;2023-02-11T17:40:59;58.45;;;30.00;;
69738;SDS011;66905;51.012;4.724;2023-02-11T17:43:26;58.60;;;30.45;;
69738;SDS011;66905;51.012;4.724;2023-02-11T17:45:52;59.22;;;31.92;;
69738;SDS011;66905;51.012;4.724;2023-02-11T17:48:18;55.70;;;30.52;;
69738;SDS011;66905;51.012;4.724;2023-02-11T17:50:46;56.17;;;29.17;;
69738;SDS011;66905;51.012;4.724;2023-02-11T17:53:14;54.58;;;28.65;;
69738;SDS011;66905;51.012;4.724;2023-02-11T17:55:40;58.40;;;32.45;;